createdAt,value
2023-02-27T00:01:41.576Z,90.47
2023-02-27T00:04:08.555Z,90.40
2023-02-27T00:06:35.751Z,90.66
2023-02-27T00:09:03.244Z,90.91
2023-02-27T00:11:30.376Z,90.86
2023-02-27T00:13:57.402Z,90.79
2023-02-27T00:16:24.574Z,90.68
2023-02-27T00:18:51.656Z,90.39
2023-02-27T00:21:18.677Z,90.39
2023-02-27T00:23:45.719Z,90.55
2023-02-27T00:26:12.656Z,90.77
2023-02-27T00:28:40.300Z,90.84
2023-02-27T00:31:07.456Z,90.95
2023-02-27T00:33:34.574Z,90.95
2023-02-27T00:36:02.462Z,90.83
2023-02-27T00:38:30.289Z,90.70
2023-02-27T00:40:58.799Z,90.64
2023-02-27T00:43:26.015Z,90.95
2023-02-27T00:45:53.115Z,91.14
2023-02-27T00:48:21.528Z,91.25
2023-02-27T00:50:50.023Z,91.19
2023-02-27T00:53:17.685Z,90.84
2023-02-27T00:55:44.767Z,90.94
2023-02-27T00:58:11.641Z,91.03
2023-02-27T01:00:38.792Z,91.14
2023-02-27T01:03:05.948Z,91.17
2023-02-27T01:05:32.993Z,90.91
2023-02-27T01:08:00.048Z,91.01
2023-02-27T01:10:27.084Z,91.19
2023-02-27T01:12:54.022Z,91.28
2023-02-27T01:15:21.296Z,91.45
2023-02-27T01:17:48.652Z,91.29
2023-02-27T01:20:17.126Z,91.02
2023-02-27T01:22:45.621Z,90.82
2023-02-27T01:25:13.252Z,90.62
2023-02-27T01:27:40.511Z,90.45
2023-02-27T01:30:10.928Z,90.20
2023-02-27T01:32:38.217Z,90.29
2023-02-27T01:35:05.783Z,90.24
2023-02-27T01:37:32.793Z,90.51
2023-02-27T01:39:59.684Z,90.56
2023-02-27T01:42:28.030Z,90.79
2023-02-27T01:45:12.311Z,91.18
2023-02-27T01:47:43.893Z,91.37
2023-02-27T01:50:13.418Z,91.50
2023-02-27T01:52:42.968Z,91.86
2023-02-27T01:55:12.628Z,91.91
2023-02-27T01:57:42.437Z,92.04
2023-02-27T02:00:10.500Z,92.22
2023-02-27T02:02:51.942Z,92.43
2023-02-27T02:05:20.950Z,92.41
2023-02-27T02:07:49.700Z,92.50
2023-02-27T02:10:18.993Z,92.57
2023-02-27T02:12:47.096Z,92.54
2023-02-27T02:15:14.300Z,92.36
2023-02-27T02:17:56.502Z,92.41
2023-02-27T02:20:45.589Z,92.32
2023-02-27T02:23:35.000Z,92.46
2023-02-27T02:26:39.405Z,92.52
2023-02-27T02:29:27.630Z,92.25
2023-02-27T02:32:16.208Z,92.34
2023-02-27T02:35:28.455Z,92.22
2023-02-27T02:38:19.318Z,92.22
2023-02-27T02:41:10.522Z,92.11
2023-02-27T02:43:39.772Z,92.09
2023-02-27T02:46:25.947Z,92.10
2023-02-27T02:49:05.732Z,92.30
2023-02-27T02:51:55.612Z,92.30
2023-02-27T02:54:33.521Z,92.34
2023-02-27T02:57:11.667Z,92.26
2023-02-27T02:59:50.886Z,92.29
2023-02-27T03:02:23.355Z,92.20
2023-02-27T03:04:56.052Z,92.16
2023-02-27T03:08:05.477Z,92.02
2023-02-27T03:10:39.739Z,91.94
2023-02-27T03:13:15.498Z,91.83
2023-02-27T03:15:54.835Z,92.01
2023-02-27T03:18:35.805Z,91.88
2023-02-27T03:21:22.197Z,91.90
2023-02-27T03:23:51.849Z,91.92
2023-02-27T03:26:24.406Z,91.91
2023-02-27T03:29:00.489Z,91.98
2023-02-27T03:31:33.650Z,91.94
2023-02-27T03:34:16.704Z,91.97
2023-02-27T03:36:51.647Z,91.93
2023-02-27T03:39:29.543Z,91.94
2023-02-27T03:42:24.845Z,91.96
2023-02-27T03:45:33.114Z,92.06
2023-02-27T03:48:02.266Z,92.09
2023-02-27T03:50:29.861Z,92.08
2023-02-27T03:52:57.124Z,92.04
2023-02-27T03:55:35.852Z,92.02
2023-02-27T03:58:04.250Z,92.14
2023-02-27T04:00:32.132Z,92.02
2023-02-27T04:03:00.840Z,92.05
2023-02-27T04:05:29.098Z,91.99
2023-02-27T04:08:21.414Z,91.96
2023-02-27T04:11:12.177Z,92.05
2023-02-27T04:14:17.287Z,92.09
2023-02-27T04:17:33.520Z,91.81
2023-02-27T04:20:33.716Z,91.89
2023-02-27T04:23:12.587Z,91.84
2023-02-27T04:25:54.079Z,91.73
2023-02-27T04:28:34.214Z,91.83
2023-02-27T04:31:34.715Z,91.73
2023-02-27T04:34:36.353Z,91.55
2023-02-27T04:37:34.599Z,91.60
2023-02-27T04:40:09.402Z,91.52
2023-02-27T04:42:44.781Z,91.35
2023-02-27T04:45:16.316Z,91.45
2023-02-27T04:47:49.046Z,91.52
2023-02-27T04:50:25.360Z,91.43
2023-02-27T04:52:59.849Z,91.25
2023-02-27T04:55:34.552Z,91.44
2023-02-27T04:58:07.399Z,91.37
2023-02-27T05:00:39.509Z,91.74
2023-02-27T05:03:22.812Z,91.56
2023-02-27T05:05:54.728Z,91.58
2023-02-27T05:08:38.205Z,91.50
2023-02-27T05:11:11.022Z,91.77
2023-02-27T05:13:45.140Z,91.37
2023-02-27T05:16:38.512Z,91.53
2023-02-27T05:19:06.674Z,91.57
2023-02-27T05:21:41.958Z,91.83
2023-02-27T05:24:09.165Z,91.99
2023-02-27T05:27:05.236Z,91.99
2023-02-27T05:29:56.119Z,92.20
2023-02-27T05:32:36.023Z,92.04
2023-02-27T05:35:08.647Z,92.21
2023-02-27T05:38:04.411Z,92.04
2023-02-27T05:40:39.765Z,92.20
2023-02-27T05:43:15.673Z,92.07
2023-02-27T05:45:46.770Z,91.91
2023-02-27T05:48:54.432Z,91.67
2023-02-27T05:51:27.560Z,91.72
2023-02-27T05:54:01.009Z,91.72
2023-02-27T05:56:32.975Z,91.73
2023-02-27T05:59:06.042Z,91.91
2023-02-27T06:01:33.258Z,91.66
2023-02-27T06:04:00.373Z,91.34
2023-02-27T06:06:30.091Z,91.07
2023-02-27T06:08:57.316Z,91.17
2023-02-27T06:11:24.383Z,91.22
2023-02-27T06:13:51.367Z,90.97
2023-02-27T06:16:19.608Z,91.11
2023-02-27T06:18:46.609Z,90.98
2023-02-27T06:21:13.500Z,90.99
2023-02-27T06:23:40.556Z,90.93
2023-02-27T06:26:07.659Z,90.97
2023-02-27T06:28:38.797Z,90.88
2023-02-27T06:31:06.329Z,90.74
2023-02-27T06:33:34.824Z,90.42
2023-02-27T06:36:01.884Z,90.23
2023-02-27T06:38:28.957Z,90.09
2023-02-27T06:40:55.929Z,89.78
2023-02-27T06:43:22.907Z,89.28
2023-02-27T06:45:54.116Z,89.04
2023-02-27T06:48:21.576Z,88.49
2023-02-27T06:50:56.263Z,88.16
2023-02-27T06:53:24.839Z,88.06
2023-02-27T06:55:51.906Z,87.60
2023-02-27T06:58:18.920Z,87.50
2023-02-27T07:00:46.506Z,87.92
2023-02-27T07:03:14.380Z,88.17
2023-02-27T07:05:42.137Z,87.25
2023-02-27T07:08:10.060Z,87.07
2023-02-27T07:10:38.362Z,86.41
2023-02-27T07:13:05.275Z,86.60
2023-02-27T07:15:32.985Z,86.98
2023-02-27T07:17:59.904Z,86.44
2023-02-27T07:20:26.973Z,85.66
2023-02-27T07:22:54.034Z,85.64
2023-02-27T07:25:20.944Z,85.15
2023-02-27T07:27:50.079Z,85.01
2023-02-27T07:30:18.977Z,85.08
2023-02-27T07:32:46.676Z,85.20
2023-02-27T07:35:13.960Z,84.56
2023-02-27T07:37:41.102Z,83.30
2023-02-27T07:40:09.059Z,83.84
2023-02-27T07:42:36.141Z,84.30
2023-02-27T07:45:03.934Z,84.50
2023-02-27T07:47:31.140Z,84.64
2023-02-27T07:49:58.097Z,84.22
2023-02-27T07:52:25.259Z,83.87
2023-02-27T07:54:52.346Z,83.60
2023-02-27T07:57:19.269Z,82.37
2023-02-27T07:59:47.735Z,82.50
2023-02-27T08:02:14.926Z,82.91
2023-02-27T08:04:41.942Z,81.38
2023-02-27T08:07:09.000Z,80.39
2023-02-27T08:09:35.945Z,81.34
2023-02-27T08:12:03.004Z,81.06
2023-02-27T08:14:30.127Z,79.09
2023-02-27T08:16:57.119Z,78.39
2023-02-27T08:19:24.069Z,77.77
2023-02-27T08:21:51.301Z,78.94
2023-02-27T08:24:18.641Z,78.06
2023-02-27T08:26:45.670Z,77.25
2023-02-27T08:29:12.728Z,76.46
2023-02-27T08:31:39.730Z,77.35
2023-02-27T08:34:10.927Z,77.30
2023-02-27T08:36:38.754Z,76.64
2023-02-27T08:39:07.097Z,74.62
2023-02-27T08:41:34.855Z,72.29
2023-02-27T08:44:01.934Z,72.25
2023-02-27T08:46:29.169Z,72.80
2023-02-27T08:48:56.369Z,74.29
2023-02-27T08:51:23.614Z,73.62
2023-02-27T08:53:50.759Z,73.86
2023-02-27T08:56:17.769Z,73.34
2023-02-27T08:58:44.757Z,70.52
2023-02-27T09:01:11.721Z,69.28
2023-02-27T09:03:38.645Z,68.62
2023-02-27T09:06:05.680Z,69.85
2023-02-27T09:08:32.782Z,69.46
2023-02-27T09:10:59.919Z,69.96
2023-02-27T09:13:27.903Z,68.20
2023-02-27T09:15:55.750Z,68.85
2023-02-27T09:18:22.861Z,68.98
2023-02-27T09:20:53.131Z,68.76
2023-02-27T09:23:20.083Z,67.42
2023-02-27T09:25:47.100Z,64.57
2023-02-27T09:28:15.152Z,63.41
2023-02-27T09:30:42.242Z,62.90
2023-02-27T09:33:09.225Z,63.61
2023-02-27T09:35:37.025Z,62.96
2023-02-27T09:38:04.289Z,61.59
2023-02-27T09:40:37.722Z,62.30
2023-02-27T09:43:20.175Z,61.26
2023-02-27T09:45:52.515Z,61.96
2023-02-27T09:48:38.577Z,62.71
2023-02-27T09:51:05.794Z,62.79
2023-02-27T09:53:41.949Z,64.19
2023-02-27T09:56:30.031Z,64.44
2023-02-27T09:59:12.538Z,64.23
2023-02-27T10:01:52.196Z,63.70
2023-02-27T10:04:25.108Z,64.35
2023-02-27T10:07:12.982Z,62.65
2023-02-27T10:09:46.853Z,63.08
2023-02-27T10:12:21.947Z,63.96
2023-02-27T10:15:02.357Z,63.84
2023-02-27T10:18:25.418Z,64.00
2023-02-27T10:21:02.004Z,65.04
2023-02-27T10:24:07.762Z,65.46
2023-02-27T10:26:41.736Z,66.13
2023-02-27T10:29:18.569Z,65.26
2023-02-27T10:31:50.065Z,65.60
2023-02-27T10:34:17.410Z,65.47
2023-02-27T10:36:47.838Z,67.02
2023-02-27T10:39:19.604Z,67.05
2023-02-27T10:41:47.507Z,65.66
2023-02-27T10:44:17.971Z,64.51
2023-02-27T10:46:45.848Z,64.88
2023-02-27T10:49:19.471Z,65.81
2023-02-27T10:52:03.658Z,64.19
2023-02-27T10:54:31.113Z,62.78
2023-02-27T10:57:01.825Z,63.47
2023-02-27T10:59:33.493Z,65.66
2023-02-27T11:02:05.683Z,65.92
2023-02-27T11:04:39.937Z,63.71
2023-02-27T11:07:11.476Z,62.90
2023-02-27T11:09:38.412Z,63.37
2023-02-27T11:12:28.618Z,62.37
2023-02-27T11:14:58.808Z,60.49
2023-02-27T11:17:34.052Z,61.85
2023-02-27T11:20:06.912Z,61.37
2023-02-27T11:22:34.027Z,59.86
2023-02-27T11:25:21.173Z,61.24
2023-02-27T11:27:49.566Z,62.71
2023-02-27T11:30:28.535Z,64.03
2023-02-27T11:32:58.338Z,64.59
2023-02-27T11:35:38.224Z,65.81
2023-02-27T11:38:15.401Z,65.22
2023-02-27T11:40:50.660Z,66.22
2023-02-27T11:43:27.603Z,67.11
2023-02-27T11:46:12.126Z,66.83
2023-02-27T11:48:47.651Z,66.61
2023-02-27T11:51:17.748Z,67.07
2023-02-27T11:53:53.561Z,67.76
2023-02-27T11:56:51.367Z,68.11
2023-02-27T12:00:06.173Z,68.38
2023-02-27T12:03:00.504Z,69.39
2023-02-27T12:05:32.777Z,70.38
2023-02-27T12:08:14.282Z,71.73
2023-02-27T12:11:38.150Z,72.51
2023-02-27T12:14:57.094Z,72.77
2023-02-27T12:18:16.367Z,72.47
2023-02-27T12:21:11.470Z,72.95
2023-02-27T12:23:46.532Z,73.47
2023-02-27T12:26:33.081Z,75.20
2023-02-27T12:29:27.800Z,76.53
2023-02-27T12:32:10.230Z,77.93
2023-02-27T12:34:49.478Z,78.75
2023-02-27T12:37:25.830Z,79.36
2023-02-27T12:39:59.815Z,79.89
2023-02-27T12:42:51.918Z,80.17
2023-02-27T12:45:35.146Z,80.49
2023-02-27T12:48:30.853Z,80.36
2023-02-27T12:51:17.313Z,80.82
2023-02-27T12:54:08.051Z,80.40
2023-02-27T12:56:57.260Z,80.68
2023-02-27T12:59:47.417Z,80.94
2023-02-27T13:02:54.162Z,81.14
2023-02-27T13:05:37.035Z,80.80
2023-02-27T13:08:30.201Z,80.56
2023-02-27T13:11:02.683Z,80.17
2023-02-27T13:14:00.935Z,79.94
2023-02-27T13:16:45.066Z,79.30
2023-02-27T13:19:31.429Z,78.01
2023-02-27T13:22:37.440Z,78.63
2023-02-27T13:25:13.640Z,79.06
2023-02-27T13:27:57.777Z,79.67
2023-02-27T13:30:35.030Z,79.85
2023-02-27T13:33:24.944Z,80.49
2023-02-27T13:35:51.859Z,80.98
2023-02-27T13:38:32.013Z,81.45
2023-02-27T13:41:28.528Z,81.04
2023-02-27T13:43:57.361Z,81.22
2023-02-27T13:46:25.648Z,81.76
2023-02-27T13:49:26.947Z,81.39
2023-02-27T13:51:59.116Z,81.64
2023-02-27T13:54:33.251Z,81.83
2023-02-27T13:57:20.922Z,82.11
2023-02-27T14:00:00.131Z,82.39
2023-02-27T14:03:06.202Z,82.56
2023-02-27T14:05:43.030Z,82.27
2023-02-27T14:08:13.115Z,82.50
2023-02-27T14:10:49.701Z,82.57
2023-02-27T14:13:44.914Z,82.82
2023-02-27T14:16:32.895Z,82.88
2023-02-27T14:19:00.921Z,82.90
2023-02-27T14:21:56.015Z,82.83
2023-02-27T14:24:30.800Z,83.07
2023-02-27T14:26:58.105Z,83.33
2023-02-27T14:29:32.741Z,83.35
2023-02-27T14:32:03.935Z,83.64
2023-02-27T14:34:32.027Z,83.75
2023-02-27T14:37:02.342Z,84.46
2023-02-27T14:39:34.853Z,84.36
2023-02-27T14:42:36.197Z,84.17
2023-02-27T14:45:04.418Z,84.39
2023-02-27T14:47:37.043Z,84.46
2023-02-27T14:50:19.957Z,84.59
2023-02-27T14:52:47.265Z,84.62
2023-02-27T14:55:29.548Z,84.63
2023-02-27T14:58:21.190Z,84.42
2023-02-27T15:01:01.341Z,84.21
2023-02-27T15:03:37.155Z,84.65
2023-02-27T15:06:39.239Z,84.78
2023-02-27T15:09:07.794Z,84.75
2023-02-27T15:11:41.192Z,85.09
2023-02-27T15:14:20.261Z,85.01
2023-02-27T15:16:47.772Z,85.28
2023-02-27T15:19:29.636Z,84.91
2023-02-27T15:21:59.305Z,84.93
2023-02-27T15:24:49.284Z,84.36
2023-02-27T15:27:22.218Z,84.50
2023-02-27T15:29:53.086Z,84.45
2023-02-27T15:32:30.626Z,84.34
2023-02-27T15:35:02.062Z,84.18
2023-02-27T15:37:32.702Z,84.05
2023-02-27T15:40:05.845Z,84.36
2023-02-27T15:42:37.082Z,84.29
2023-02-27T15:45:06.382Z,84.88
2023-02-27T15:47:34.972Z,85.05
2023-02-27T15:50:08.329Z,84.96
2023-02-27T15:52:50.232Z,84.70
2023-02-27T15:55:40.005Z,84.05
2023-02-27T15:58:23.566Z,83.85
2023-02-27T16:01:24.233Z,83.84
2023-02-27T16:03:57.367Z,83.13
2023-02-27T16:06:40.715Z,82.80
2023-02-27T16:09:24.982Z,82.74
2023-02-27T16:12:09.692Z,82.77
2023-02-27T16:14:42.519Z,82.82
2023-02-27T16:17:31.220Z,83.10
2023-02-27T16:20:02.085Z,82.94
2023-02-27T16:22:30.122Z,82.92
2023-02-27T16:25:09.712Z,83.10
2023-02-27T16:27:38.426Z,82.79
2023-02-27T16:30:11.484Z,82.58
2023-02-27T16:32:46.122Z,82.36
2023-02-27T16:35:17.933Z,82.32
2023-02-27T16:37:45.698Z,82.63
2023-02-27T16:40:18.943Z,82.88
2023-02-27T16:42:46.296Z,82.95
2023-02-27T16:45:25.456Z,83.03
2023-02-27T16:47:59.200Z,82.97
2023-02-27T16:50:28.086Z,82.79
2023-02-27T16:52:56.841Z,83.02
2023-02-27T16:55:25.412Z,82.80
2023-02-27T16:57:52.663Z,82.74
2023-02-27T17:00:21.968Z,82.70
2023-02-27T17:02:49.417Z,82.94
2023-02-27T17:05:17.322Z,82.99
2023-02-27T17:07:48.070Z,83.02
2023-02-27T17:10:18.242Z,82.85
2023-02-27T17:12:47.207Z,82.85
2023-02-27T17:15:14.843Z,82.69
2023-02-27T17:17:41.756Z,82.88
2023-02-27T17:20:10.762Z,83.08
2023-02-27T17:22:39.315Z,83.09
2023-02-27T17:25:07.795Z,82.94
2023-02-27T17:27:34.902Z,82.75
2023-02-27T17:30:02.186Z,83.03
2023-02-27T17:32:29.033Z,83.36
2023-02-27T17:34:56.314Z,83.34
2023-02-27T17:37:23.223Z,83.22
2023-02-27T17:39:50.124Z,83.29
2023-02-27T17:42:18.028Z,83.16
2023-02-27T17:44:45.852Z,83.39
2023-02-27T17:47:13.586Z,83.68
2023-02-27T17:49:40.505Z,83.86
2023-02-27T17:52:07.627Z,83.95
2023-02-27T17:54:35.467Z,84.19
2023-02-27T17:57:08.662Z,84.22
2023-02-27T17:59:35.672Z,84.31
2023-02-27T18:02:02.790Z,84.41
2023-02-27T18:04:29.640Z,84.54
2023-02-27T18:06:56.557Z,84.83
2023-02-27T18:09:23.549Z,85.00
2023-02-27T18:11:50.435Z,85.21
2023-02-27T18:14:17.318Z,85.46
2023-02-27T18:16:44.521Z,85.66
2023-02-27T18:19:11.748Z,85.88
2023-02-27T18:21:38.685Z,86.08
2023-02-27T18:24:05.783Z,86.20
2023-02-27T18:26:33.116Z,86.27
2023-02-27T18:29:03.609Z,86.32
2023-02-27T18:31:36.629Z,86.34
2023-02-27T18:34:04.016Z,86.51
2023-02-27T18:36:32.061Z,86.62
2023-02-27T18:39:00.062Z,86.68
2023-02-27T18:41:28.721Z,86.61
2023-02-27T18:43:56.196Z,86.62
2023-02-27T18:46:23.568Z,86.89
2023-02-27T18:48:50.910Z,86.71
2023-02-27T18:51:18.330Z,86.94
2023-02-27T18:53:48.614Z,86.77
2023-02-27T18:56:20.737Z,86.87
2023-02-27T18:58:48.295Z,87.07
2023-02-27T19:01:27.719Z,86.85
2023-02-27T19:04:02.653Z,86.72
2023-02-27T19:06:31.577Z,86.76
2023-02-27T19:08:58.836Z,87.18
2023-02-27T19:11:28.931Z,87.41
2023-02-27T19:13:57.246Z,87.56
2023-02-27T19:16:24.363Z,87.72
2023-02-27T19:18:51.565Z,87.66
2023-02-27T19:21:18.496Z,87.62
2023-02-27T19:23:45.618Z,87.66
2023-02-27T19:26:12.518Z,87.66
2023-02-27T19:28:39.464Z,87.49
2023-02-27T19:31:08.990Z,87.63
2023-02-27T19:33:36.301Z,87.27
2023-02-27T19:36:12.015Z,87.16
2023-02-27T19:38:41.526Z,86.89
2023-02-27T19:41:11.556Z,87.08
2023-02-27T19:43:41.425Z,87.06
2023-02-27T19:46:14.478Z,86.90
2023-02-27T19:48:42.390Z,86.90
2023-02-27T19:51:12.467Z,86.60
2023-02-27T19:53:41.426Z,86.65
2023-02-27T19:56:12.052Z,86.59
2023-02-27T19:58:41.398Z,86.61
2023-02-27T20:01:09.304Z,86.56
2023-02-27T20:03:36.795Z,86.37
2023-02-27T20:06:08.582Z,86.03
2023-02-27T20:08:35.472Z,86.00
2023-02-27T20:11:04.945Z,85.93
2023-02-27T20:13:35.178Z,85.68
2023-02-27T20:16:04.963Z,85.71
2023-02-27T20:18:32.416Z,85.50
2023-02-27T20:21:08.240Z,85.52
2023-02-27T20:23:38.603Z,85.22
2023-02-27T20:26:17.531Z,85.03
2023-02-27T20:28:45.952Z,84.92
2023-02-27T20:31:14.515Z,84.69
2023-02-27T20:33:42.449Z,84.67
2023-02-27T20:36:10.864Z,84.33
2023-02-27T20:38:41.053Z,84.24
2023-02-27T20:41:13.576Z,84.23
2023-02-27T20:43:43.833Z,84.24
2023-02-27T20:46:14.657Z,84.10
2023-02-27T20:49:04.969Z,84.15
2023-02-27T20:51:35.927Z,84.25
2023-02-27T20:54:05.679Z,84.08
2023-02-27T20:56:40.458Z,84.16
2023-02-27T20:59:18.120Z,84.18
2023-02-27T21:01:52.222Z,83.95
2023-02-27T21:04:43.697Z,83.93
2023-02-27T21:07:16.420Z,84.10
2023-02-27T21:09:44.608Z,83.95
2023-02-27T21:12:11.925Z,83.97
2023-02-27T21:14:39.306Z,83.90
2023-02-27T21:17:06.366Z,83.97
2023-02-27T21:19:33.536Z,83.79
2023-02-27T21:22:00.596Z,83.70
2023-02-27T21:24:31.612Z,83.68
2023-02-27T21:26:58.928Z,83.67
2023-02-27T21:29:26.082Z,83.68
2023-02-27T21:32:00.932Z,83.64
2023-02-27T21:34:28.863Z,83.61
2023-02-27T21:36:56.080Z,83.93
2023-02-27T21:39:25.903Z,83.87
2023-02-27T21:41:53.645Z,83.80
2023-02-27T21:44:24.403Z,83.76
2023-02-27T21:46:54.324Z,83.86
2023-02-27T21:49:25.315Z,83.81
2023-02-27T21:51:52.348Z,83.94
2023-02-27T21:54:20.433Z,83.76
2023-02-27T21:56:48.536Z,83.69
2023-02-27T21:59:16.720Z,83.72
2023-02-27T22:01:46.677Z,83.82
2023-02-27T22:04:18.896Z,83.87
2023-02-27T22:06:47.536Z,83.80
2023-02-27T22:09:14.683Z,83.98
2023-02-27T22:11:42.125Z,83.94
2023-02-27T22:14:10.838Z,83.81
2023-02-27T22:16:38.831Z,83.58
2023-02-27T22:19:07.698Z,83.87
2023-02-27T22:21:36.049Z,83.85
2023-02-27T22:24:05.484Z,83.87
2023-02-27T22:26:33.857Z,83.86
2023-02-27T22:29:03.274Z,83.72
2023-02-27T22:31:33.631Z,83.78
2023-02-27T22:34:11.422Z,83.57
2023-02-27T22:36:41.097Z,83.30
2023-02-27T22:39:08.009Z,83.19
2023-02-27T22:41:38.930Z,83.28
2023-02-27T22:44:07.891Z,83.29
2023-02-27T22:46:37.849Z,83.42
2023-02-27T22:49:08.020Z,83.52
2023-02-27T22:51:35.780Z,83.33
2023-02-27T22:54:04.023Z,83.11
2023-02-27T22:56:31.048Z,82.85
2023-02-27T22:58:58.423Z,83.08
2023-02-27T23:01:30.753Z,83.07
2023-02-27T23:04:00.623Z,83.03
2023-02-27T23:06:30.457Z,83.08
2023-02-27T23:08:58.383Z,82.84
2023-02-27T23:11:25.474Z,82.92
2023-02-27T23:13:53.202Z,82.79
2023-02-27T23:16:20.512Z,82.73
2023-02-27T23:18:50.501Z,82.95
2023-02-27T23:21:20.087Z,83.16
2023-02-27T23:23:47.788Z,83.08
2023-02-27T23:26:15.246Z,83.12
2023-02-27T23:28:42.223Z,83.11
2023-02-27T23:31:09.222Z,82.87
2023-02-27T23:33:36.708Z,82.94
2023-02-27T23:36:04.851Z,83.24
2023-02-27T23:38:39.086Z,83.46
2023-02-27T23:41:08.959Z,83.73
2023-02-27T23:43:35.974Z,84.33
2023-02-27T23:46:08.065Z,84.73
2023-02-27T23:48:35.620Z,85.01
2023-02-27T23:51:04.966Z,85.34
2023-02-27T23:53:35.011Z,85.19
2023-02-27T23:56:12.157Z,85.00
2023-02-27T23:58:39.195Z,85.20
